Time;durP1;ratioP1;P1;durP2;ratioP2;P2;SDS_P1;SDS_P2;PMS_P1;PMS_P2;Temp;Humidity;BMP_temperature;BMP_pressure;BME280_temperature;BME280_humidity;BME280_pressure;Samples;Min_cycle;Max_cycle;Signal;HPM_P1;HPM_P2
2023/03/15 00:01:37;;;;;;;3.00;1.02;;;;;;;;;;5038446;28;20040;-43
2023/03/15 00:04:04;;;;;;;2.35;1.00;;;;;;;;;;5033040;28;20164;-43
2023/03/15 00:06:33;;;;;;;3.38;1.23;;;;;;;;;;5036712;28;20048;-42
2023/03/15 00:09:02;;;;;;;1.85;1.05;;;;;;;;;;5038016;28;20041;-43
2023/03/15 00:11:31;;;;;;;1.67;1.00;;;;;;;;;;5038874;28;20041;-42
2023/03/15 00:14:01;;;;;;;3.08;1.10;;;;;;;;;;5029128;28;20029;-44
2023/03/15 00:16:26;;;;;;;2.10;1.17;;;;;;;;;;5030566;28;20049;-42
2023/03/15 00:18:58;;;;;;;0.85;0.82;;;;;;;;;;5032145;28;20040;-42
2023/03/15 00:21:23;;;;;;;4.77;1.30;;;;;;;;;;5033027;28;20493;-42
2023/03/15 00:23:49;;;;;;;4.80;1.05;;;;;;;;;;5027474;28;20060;-42
2023/03/15 00:26:14;;;;;;;2.50;1.15;;;;;;;;;;5028123;28;20376;-43
2023/03/15 00:28:40;;;;;;;6.22;1.38;;;;;;;;;;5033123;28;20363;-41
2023/03/15 00:31:10;;;;;;;3.70;1.48;;;;;;;;;;5030935;28;21021;-42
2023/03/15 00:33:36;;;;;;;2.67;1.05;;;;;;;;;;5033829;28;20554;-42
2023/03/15 00:36:04;;;;;;;4.18;1.30;;;;;;;;;;5035584;28;20116;-44
2023/03/15 00:38:37;;;;;;;1.90;0.90;;;;;;;;;;5035868;28;20104;-45
2023/03/15 00:41:05;;;;;;;2.95;1.00;;;;;;;;;;5035128;28;20452;-42
2023/03/15 00:43:31;;;;;;;1.20;0.80;;;;;;;;;;5035131;28;20383;-41
2023/03/15 00:45:57;;;;;;;2.20;0.80;;;;;;;;;;5029203;28;20017;-41
2023/03/15 00:48:22;;;;;;;2.47;0.95;;;;;;;;;;5033546;28;20743;-43
2023/03/15 00:51:09;;;;;;;1.95;0.68;;;;;;;;;;5031737;28;20533;-42
2023/03/15 00:53:36;;;;;;;2.03;1.10;;;;;;;;;;5037768;28;20041;-46
2023/03/15 00:56:10;;;;;;;1.75;0.70;;;;;;;;;;5036994;28;20751;-45
2023/03/15 00:58:36;;;;;;;1.90;0.90;;;;;;;;;;5036748;28;20575;-46
2023/03/15 01:01:17;;;;;;;0.85;0.70;;;;;;;;;;5030867;28;20025;-42
2023/03/15 01:03:43;;;;;;;6.10;1.00;;;;;;;;;;5033265;28;20041;-42
2023/03/15 01:06:12;;;;;;;4.28;1.13;;;;;;;;;;5038154;28;20416;-42
2023/03/15 01:08:38;;;;;;;4.47;1.00;;;;;;;;;;5033236;28;20439;-41
2023/03/15 01:11:05;;;;;;;4.05;0.95;;;;;;;;;;5034912;28;20029;-43
2023/03/15 01:13:37;;;;;;;3.95;1.02;;;;;;;;;;5033271;28;20430;-42
2023/03/15 01:16:03;;;;;;;7.75;1.33;;;;;;;;;;5029781;28;20108;-43
2023/03/15 01:18:29;;;;;;;4.13;1.08;;;;;;;;;;5035432;28;20025;-42
2023/03/15 01:20:58;;;;;;;2.05;1.15;;;;;;;;;;5036856;28;20041;-42
2023/03/15 01:23:24;;;;;;;2.50;1.13;;;;;;;;;;5033877;28;20056;-44
2023/03/15 01:26:00;;;;;;;3.97;1.27;;;;;;;;;;5035322;28;20033;-44
2023/03/15 01:28:25;;;;;;;3.55;1.77;;;;;;;;;;5034126;28;20045;-42
2023/03/15 01:30:52;;;;;;;1.20;0.80;;;;;;;;;;5032406;28;20033;-42
2023/03/15 01:33:24;;;;;;;3.50;1.08;;;;;;;;;;5032230;28;20045;-42
2023/03/15 01:36:04;;;;;;;2.33;1.10;;;;;;;;;;5032244;28;20068;-43
2023/03/15 01:38:29;;;;;;;2.80;1.02;;;;;;;;;;5028907;28;20050;-42
2023/03/15 01:40:55;;;;;;;4.18;1.05;;;;;;;;;;5034639;28;20036;-43
2023/03/15 01:43:32;;;;;;;3.50;1.10;;;;;;;;;;5034594;28;20111;-45
2023/03/15 01:45:58;;;;;;;4.97;1.48;;;;;;;;;;5032493;28;20513;-44
2023/03/15 01:48:55;;;;;;;1.70;0.88;;;;;;;;;;5028337;28;20053;-43
2023/03/15 01:51:46;;;;;;;2.90;1.50;;;;;;;;;;5027953;28;20045;-42
2023/03/15 01:54:24;;;;;;;0.98;0.68;;;;;;;;;;5030304;28;20029;-43
2023/03/15 01:57:01;;;;;;;2.95;0.95;;;;;;;;;;5028462;28;20060;-42
2023/03/15 01:59:44;;;;;;;0.50;0.50;;;;;;;;;;5032536;28;20045;-43
2023/03/15 02:02:16;;;;;;;3.17;1.00;;;;;;;;;;5032064;28;20045;-42
2023/03/15 02:04:47;;;;;;;6.05;0.93;;;;;;;;;;5030977;28;20021;-42
2023/03/15 02:07:16;;;;;;;7.88;1.10;;;;;;;;;;5031679;28;20116;-42
2023/03/15 02:10:02;;;;;;;1.83;1.20;;;;;;;;;;5034327;28;20025;-44
2023/03/15 02:12:30;;;;;;;4.25;1.38;;;;;;;;;;5026165;28;20041;-42
2023/03/15 02:14:59;;;;;;;2.97;1.05;;;;;;;;;;5030384;28;20087;-42
2023/03/15 02:17:51;;;;;;;2.33;1.08;;;;;;;;;;5031489;28;20033;-42
2023/03/15 02:20:26;;;;;;;6.60;1.42;;;;;;;;;;5032836;28;20042;-45
2023/03/15 02:22:59;;;;;;;1.90;1.17;;;;;;;;;;5032866;28;20509;-43
2023/03/15 02:25:50;;;;;;;3.60;1.20;;;;;;;;;;5035641;28;20028;-43
2023/03/15 02:28:18;;;;;;;1.70;0.93;;;;;;;;;;5026445;28;20061;-42
2023/03/15 02:30:56;;;;;;;2.67;1.05;;;;;;;;;;5033427;28;20044;-44
2023/03/15 02:33:29;;;;;;;1.65;1.00;;;;;;;;;;5046364;28;20067;-43
2023/03/15 02:36:13;;;;;;;3.28;0.95;;;;;;;;;;5036319;28;20032;-42
2023/03/15 02:38:39;;;;;;;5.95;1.30;;;;;;;;;;5029054;28;20479;-42
2023/03/15 02:41:10;;;;;;;4.68;1.10;;;;;;;;;;5033786;28;20061;-42
2023/03/15 02:43:37;;;;;;;3.60;1.25;;;;;;;;;;5027842;28;20120;-42
2023/03/15 02:46:04;;;;;;;4.32;1.20;;;;;;;;;;5032766;28;20033;-42
2023/03/15 02:48:33;;;;;;;2.85;1.10;;;;;;;;;;5032856;28;20052;-42
2023/03/15 02:50:58;;;;;;;4.10;1.30;;;;;;;;;;5030092;28;20037;-48
2023/03/15 02:53:23;;;;;;;2.78;0.90;;;;;;;;;;5034152;28;20051;-45
2023/03/15 02:55:50;;;;;;;3.95;1.40;;;;;;;;;;5038760;28;20520;-42
2023/03/15 02:58:16;;;;;;;4.78;1.27;;;;;;;;;;5038005;28;20064;-42
2023/03/15 03:00:52;;;;;;;4.95;0.90;;;;;;;;;;5035005;28;22344;-42
2023/03/15 03:03:18;;;;;;;3.42;1.17;;;;;;;;;;5032266;28;20128;-46
2023/03/15 03:05:43;;;;;;;1.80;1.00;;;;;;;;;;5035912;28;20105;-44
2023/03/15 03:08:15;;;;;;;5.32;1.33;;;;;;;;;;5033713;28;20042;-46
2023/03/15 03:10:40;;;;;;;3.17;1.15;;;;;;;;;;5037229;28;20108;-45
2023/03/15 03:13:08;;;;;;;5.30;1.20;;;;;;;;;;5026456;28;20136;-44
2023/03/15 03:15:34;;;;;;;1.90;1.05;;;;;;;;;;5037584;28;20096;-46
2023/03/15 03:17:59;;;;;;;5.85;1.70;;;;;;;;;;5043210;28;20403;-43
2023/03/15 03:20:26;;;;;;;3.05;1.25;;;;;;;;;;5027476;28;20030;-46
2023/03/15 03:22:54;;;;;;;2.95;1.30;;;;;;;;;;5031659;28;20030;-43
2023/03/15 03:25:20;;;;;;;2.38;1.20;;;;;;;;;;5036857;28;20040;-48
2023/03/15 03:27:45;;;;;;;1.98;0.95;;;;;;;;;;5036351;28;21785;-42
2023/03/15 03:30:12;;;;;;;3.00;0.82;;;;;;;;;;5032617;28;20380;-43
2023/03/15 03:32:41;;;;;;;3.05;1.33;;;;;;;;;;5036548;28;20044;-44
2023/03/15 03:35:07;;;;;;;2.90;1.60;;;;;;;;;;5029740;28;20593;-42
2023/03/15 03:37:34;;;;;;;5.22;1.17;;;;;;;;;;5040997;28;20044;-45
2023/03/15 03:40:00;;;;;;;1.95;1.10;;;;;;;;;;5033295;28;20036;-42
2023/03/15 03:42:25;;;;;;;2.47;1.20;;;;;;;;;;5053242;28;20037;-42
2023/03/15 03:44:53;;;;;;;5.30;1.40;;;;;;;;;;5035043;28;21523;-46
2023/03/15 03:47:19;;;;;;;3.30;1.30;;;;;;;;;;5050570;28;20040;-43
2023/03/15 03:49:44;;;;;;;2.67;1.20;;;;;;;;;;5039338;28;20079;-41
2023/03/15 03:52:19;;;;;;;3.88;1.20;;;;;;;;;;5035124;28;20473;-42
2023/03/15 03:54:45;;;;;;;6.25;1.70;;;;;;;;;;5036334;28;20025;-45
2023/03/15 03:57:10;;;;;;;5.85;1.10;;;;;;;;;;5035974;28;20060;-49
2023/03/15 03:59:36;;;;;;;3.25;1.30;;;;;;;;;;5043094;28;20082;-43
2023/03/15 04:02:01;;;;;;;3.00;1.00;;;;;;;;;;5034452;28;20108;-47
2023/03/15 04:04:36;;;;;;;1.35;1.08;;;;;;;;;;5032092;28;20609;-43
2023/03/15 04:07:01;;;;;;;3.60;1.58;;;;;;;;;;5034401;28;20025;-43
2023/03/15 04:09:26;;;;;;;3.05;1.30;;;;;;;;;;5042270;28;20029;-49
2023/03/15 04:11:52;;;;;;;8.18;1.40;;;;;;;;;;5035360;28;20033;-43
2023/03/15 04:14:17;;;;;;;6.18;1.40;;;;;;;;;;5033151;28;20025;-48
2023/03/15 04:16:43;;;;;;;4.07;1.38;;;;;;;;;;5039267;28;20045;-42
2023/03/15 04:19:17;;;;;;;3.00;1.67;;;;;;;;;;5033041;28;20084;-42
2023/03/15 04:21:46;;;;;;;4.05;1.38;;;;;;;;;;5036325;28;20100;-45
2023/03/15 04:24:11;;;;;;;2.80;1.20;;;;;;;;;;5029673;28;20025;-42
2023/03/15 04:26:37;;;;;;;1.35;1.00;;;;;;;;;;5032217;28;20091;-42
2023/03/15 04:29:03;;;;;;;5.57;1.45;;;;;;;;;;5036960;28;20017;-45
2023/03/15 04:31:36;;;;;;;7.85;2.10;;;;;;;;;;5039928;28;20678;-42
2023/03/15 04:34:03;;;;;;;5.00;1.40;;;;;;;;;;5034838;28;20060;-44
2023/03/15 04:36:29;;;;;;;3.60;1.35;;;;;;;;;;5025479;28;20561;-43
2023/03/15 04:39:03;;;;;;;6.60;1.42;;;;;;;;;;5032104;28;20499;-42
2023/03/15 04:41:38;;;;;;;3.85;1.60;;;;;;;;;;5028300;28;20047;-42
2023/03/15 04:44:04;;;;;;;4.80;1.55;;;;;;;;;;5035099;28;20066;-47
2023/03/15 04:46:31;;;;;;;6.93;1.70;;;;;;;;;;5034638;28;20041;-42
2023/03/15 04:48:57;;;;;;;7.30;2.10;;;;;;;;;;5035588;28;20451;-42
2023/03/15 04:51:22;;;;;;;4.82;1.23;;;;;;;;;;5030943;28;20065;-48
2023/03/15 04:53:48;;;;;;;5.47;1.67;;;;;;;;;;5032145;28;20042;-47
2023/03/15 04:56:13;;;;;;;8.07;1.88;;;;;;;;;;5053049;28;20030;-44
2023/03/15 04:58:39;;;;;;;2.63;0.90;;;;;;;;;;5036915;28;20078;-51
2023/03/15 05:01:16;;;;;;;16.23;2.28;;;;;;;;;;5034136;28;20504;-45
2023/03/15 05:03:41;;;;;;;5.07;1.50;;;;;;;;;;5032970;28;20061;-47
2023/03/15 05:06:07;;;;;;;4.47;1.48;;;;;;;;;;5034483;28;20466;-42
2023/03/15 05:08:34;;;;;;;5.85;1.40;;;;;;;;;;5034168;28;20082;-45
2023/03/15 05:11:00;;;;;;;3.47;1.35;;;;;;;;;;5034329;28;20112;-46
2023/03/15 05:13:37;;;;;;;5.00;1.52;;;;;;;;;;5039872;28;20117;-44
2023/03/15 05:16:02;;;;;;;5.75;1.13;;;;;;;;;;5031175;28;20031;-47
2023/03/15 05:18:28;;;;;;;5.43;1.88;;;;;;;;;;5030607;28;20025;-49
2023/03/15 05:20:56;;;;;;;4.53;1.63;;;;;;;;;;5035114;28;20032;-42
2023/03/15 05:23:23;;;;;;;2.95;1.20;;;;;;;;;;5031497;28;20112;-48
2023/03/15 05:25:53;;;;;;;3.45;1.48;;;;;;;;;;5029277;28;20402;-42
2023/03/15 05:28:20;;;;;;;5.65;1.85;;;;;;;;;;5029346;28;20037;-42
2023/03/15 05:30:46;;;;;;;4.10;1.20;;;;;;;;;;5033239;28;20097;-45
2023/03/15 05:33:12;;;;;;;3.55;1.52;;;;;;;;;;5035544;28;20128;-48
2023/03/15 05:35:38;;;;;;;4.82;1.30;;;;;;;;;;5033461;28;20030;-46
2023/03/15 05:38:04;;;;;;;3.15;1.50;;;;;;;;;;5026986;28;20053;-47
2023/03/15 05:40:31;;;;;;;7.85;2.17;;;;;;;;;;5027240;28;20631;-46
2023/03/15 05:43:00;;;;;;;6.07;1.50;;;;;;;;;;5024104;28;20408;-48
2023/03/15 05:45:31;;;;;;;6.07;2.33;;;;;;;;;;5023891;28;20034;-43
2023/03/15 05:47:56;;;;;;;2.13;1.30;;;;;;;;;;5020851;28;20053;-43
2023/03/15 05:50:22;;;;;;;5.32;1.75;;;;;;;;;;5034795;28;20029;-42
2023/03/15 05:52:49;;;;;;;6.07;1.65;;;;;;;;;;5033358;28;20436;-43
2023/03/15 05:55:15;;;;;;;10.05;1.95;;;;;;;;;;5036350;28;20026;-42
2023/03/15 05:57:40;;;;;;;5.03;1.30;;;;;;;;;;5034089;28;20037;-42
2023/03/15 06:00:13;;;;;;;3.13;1.20;;;;;;;;;;5037985;28;20025;-41
2023/03/15 06:02:43;;;;;;;3.63;1.75;;;;;;;;;;5033870;28;20049;-43
2023/03/15 06:05:08;;;;;;;11.27;1.60;;;;;;;;;;5028268;28;20056;-41
2023/03/15 06:07:34;;;;;;;5.95;1.63;;;;;;;;;;5029923;28;20494;-42
2023/03/15 06:09:59;;;;;;;3.92;1.20;;;;;;;;;;5026969;28;20028;-41
2023/03/15 06:12:31;;;;;;;5.75;3.22;;;;;;;;;;5026773;28;20076;-42
2023/03/15 06:14:56;;;;;;;9.50;1.53;;;;;;;;;;5031785;28;20112;-44
2023/03/15 06:17:28;;;;;;;5.20;1.42;;;;;;;;;;5029166;28;21081;-44
2023/03/15 06:19:53;;;;;;;5.15;1.52;;;;;;;;;;5029369;28;20432;-42
2023/03/15 06:22:19;;;;;;;4.53;1.13;;;;;;;;;;5030667;28;20037;-42
2023/03/15 06:24:45;;;;;;;7.63;1.52;;;;;;;;;;5033944;28;20021;-42
2023/03/15 06:27:11;;;;;;;14.82;1.90;;;;;;;;;;5033627;28;20047;-43
2023/03/15 06:29:36;;;;;;;5.90;2.22;;;;;;;;;;5025525;28;20028;-41
2023/03/15 06:32:02;;;;;;;6.40;1.70;;;;;;;;;;5029322;28;20056;-42
2023/03/15 06:34:28;;;;;;;5.65;1.30;;;;;;;;;;5022891;28;20096;-42
2023/03/15 06:36:59;;;;;;;8.43;1.90;;;;;;;;;;5029527;28;20056;-43
2023/03/15 06:39:25;;;;;;;6.10;1.75;;;;;;;;;;5032865;28;20079;-43
2023/03/15 06:41:52;;;;;;;6.00;1.60;;;;;;;;;;5030949;28;20440;-43
2023/03/15 06:44:19;;;;;;;7.55;1.77;;;;;;;;;;5027124;28;20045;-42
2023/03/15 06:46:44;;;;;;;1.85;1.30;;;;;;;;;;5037064;28;20046;-42
2023/03/15 06:49:22;;;;;;;8.32;2.00;;;;;;;;;;5031724;28;20044;-41
2023/03/15 06:51:47;;;;;;;5.47;1.35;;;;;;;;;;5033638;28;20053;-42
2023/03/15 06:54:12;;;;;;;2.55;1.02;;;;;;;;;;5030534;28;20033;-42
2023/03/15 06:56:38;;;;;;;11.40;4.30;;;;;;;;;;5035308;28;20051;-41
2023/03/15 06:59:04;;;;;;;6.65;1.92;;;;;;;;;;5031363;28;20029;-43
2023/03/15 07:01:29;;;;;;;2.78;1.48;;;;;;;;;;5021958;28;20029;-45
2023/03/15 07:03:55;;;;;;;4.72;1.20;;;;;;;;;;5021182;28;20029;-42
2023/03/15 07:06:20;;;;;;;4.65;1.60;;;;;;;;;;5033450;28;20095;-41
2023/03/15 07:08:45;;;;;;;6.93;1.83;;;;;;;;;;5028108;28;20036;-44
2023/03/15 07:11:12;;;;;;;6.80;1.95;;;;;;;;;;5029610;28;20030;-42
2023/03/15 07:13:37;;;;;;;1.92;1.13;;;;;;;;;;5037548;28;20120;-49
2023/03/15 07:16:03;;;;;;;4.82;1.63;;;;;;;;;;5032164;28;20096;-42
2023/03/15 07:18:28;;;;;;;7.03;1.52;;;;;;;;;;5033943;28;20048;-42
2023/03/15 07:21:02;;;;;;;5.50;1.52;;;;;;;;;;5031538;28;20047;-42
2023/03/15 07:23:27;;;;;;;8.95;1.67;;;;;;;;;;5034757;28;20095;-41
2023/03/15 07:26:02;;;;;;;8.07;1.70;;;;;;;;;;5030710;28;20029;-42
2023/03/15 07:28:29;;;;;;;4.68;1.17;;;;;;;;;;5028575;28;20057;-41
2023/03/15 07:30:56;;;;;;;4.05;1.45;;;;;;;;;;5032899;28;20095;-42
2023/03/15 07:33:25;;;;;;;3.60;1.13;;;;;;;;;;5030734;28;20041;-45
2023/03/15 07:35:54;;;;;;;4.20;1.55;;;;;;;;;;5032081;28;20103;-42
2023/03/15 07:38:27;;;;;;;7.13;1.05;;;;;;;;;;5028805;28;20042;-42
2023/03/15 07:40:56;;;;;;;8.07;1.77;;;;;;;;;;5036114;28;20025;-43
2023/03/15 07:43:21;;;;;;;5.90;1.58;;;;;;;;;;5034794;28;20560;-42
2023/03/15 07:45:47;;;;;;;8.23;1.75;;;;;;;;;;5037443;28;20060;-42
2023/03/15 07:48:15;;;;;;;4.25;1.45;;;;;;;;;;5030872;28;20045;-42
2023/03/15 07:50:41;;;;;;;8.23;1.58;;;;;;;;;;5036595;28;20053;-43
2023/03/15 07:53:15;;;;;;;6.45;1.70;;;;;;;;;;5036855;28;20571;-42
2023/03/15 07:55:40;;;;;;;2.55;1.30;;;;;;;;;;5039141;28;20033;-42
2023/03/15 07:58:06;;;;;;;4.93;1.58;;;;;;;;;;5033755;28;20040;-45
2023/03/15 08:00:32;;;;;;;4.82;1.50;;;;;;;;;;5035753;28;20023;-42
2023/03/15 08:02:58;;;;;;;2.75;1.10;;;;;;;;;;5037944;28;20401;-43
2023/03/15 08:05:24;;;;;;;3.10;0.95;;;;;;;;;;5034412;28;20033;-41
2023/03/15 08:07:49;;;;;;;6.13;1.80;;;;;;;;;;5037391;28;20073;-44
2023/03/15 08:10:15;;;;;;;6.78;1.23;;;;;;;;;;5029614;28;20386;-41
2023/03/15 08:12:50;;;;;;;7.70;1.33;;;;;;;;;;5035878;28;20491;-41
2023/03/15 08:15:16;;;;;;;7.78;1.40;;;;;;;;;;5029931;28;20517;-42
2023/03/15 08:17:41;;;;;;;5.57;2.17;;;;;;;;;;5032910;28;20046;-42
2023/03/15 08:20:10;;;;;;;3.67;1.20;;;;;;;;;;5036735;28;20501;-42
2023/03/15 08:22:37;;;;;;;5.15;1.70;;;;;;;;;;5039674;28;20040;-41
2023/03/15 08:25:08;;;;;;;5.38;1.98;;;;;;;;;;5036190;28;20112;-42
2023/03/15 08:27:34;;;;;;;;;;;;;;;;;;5029491;28;20041;-41
2023/03/15 08:30:00;;;;;;;5.38;1.70;;;;;;;;;;5032803;28;19921;-42
2023/03/15 08:32:25;;;;;;;9.82;1.80;;;;;;;;;;5031585;28;20038;-43
2023/03/15 08:34:52;;;;;;;2.33;1.20;;;;;;;;;;5038526;28;20024;-42
2023/03/15 08:37:17;;;;;;;3.72;1.20;;;;;;;;;;5034332;28;20037;-42
2023/03/15 08:39:42;;;;;;;8.40;1.38;;;;;;;;;;5035754;28;20086;-42
2023/03/15 08:42:08;;;;;;;7.57;1.55;;;;;;;;;;5033537;28;20433;-42
2023/03/15 08:44:42;;;;;;;2.38;1.02;;;;;;;;;;5032634;28;20025;-41
2023/03/15 08:47:08;;;;;;;5.20;1.42;;;;;;;;;;5030121;28;20485;-42
2023/03/15 08:49:33;;;;;;;7.38;1.55;;;;;;;;;;5032778;28;20076;-42
2023/03/15 08:51:59;;;;;;;3.55;1.17;;;;;;;;;;5030491;28;20063;-41
2023/03/15 08:54:26;;;;;;;2.80;0.85;;;;;;;;;;5034580;28;20518;-45
2023/03/15 08:56:51;;;;;;;2.35;1.23;;;;;;;;;;5029179;28;20052;-43
2023/03/15 08:59:16;;;;;;;5.72;1.73;;;;;;;;;;5037568;28;20396;-42
2023/03/15 09:01:43;;;;;;;8.25;1.40;;;;;;;;;;5031786;28;20072;-43
2023/03/15 09:04:09;;;;;;;3.20;1.10;;;;;;;;;;5033929;28;20469;-42
2023/03/15 09:06:35;;;;;;;7.60;1.20;;;;;;;;;;5033919;28;20110;-42
2023/03/15 09:09:00;;;;;;;3.55;1.40;;;;;;;;;;5033409;28;20021;-42
2023/03/15 09:11:26;;;;;;;4.28;1.10;;;;;;;;;;5031643;28;20545;-42
2023/03/15 09:13:51;;;;;;;10.63;1.75;;;;;;;;;;5029283;28;20048;-42
2023/03/15 09:16:16;;;;;;;6.13;1.23;;;;;;;;;;5031865;28;20052;-42
2023/03/15 09:18:45;;;;;;;5.38;1.42;;;;;;;;;;5035936;28;20404;-42
2023/03/15 09:21:10;;;;;;;3.40;1.48;;;;;;;;;;5027681;28;20033;-42
2023/03/15 09:23:36;;;;;;;4.55;1.40;;;;;;;;;;5031945;28;20045;-43
2023/03/15 09:26:02;;;;;;;3.25;1.60;;;;;;;;;;5030070;28;20124;-42
2023/03/15 09:28:27;;;;;;;3.50;1.33;;;;;;;;;;5033039;28;20557;-44
2023/03/15 09:30:53;;;;;;;2.72;1.13;;;;;;;;;;5031711;28;20113;-42
2023/03/15 09:33:21;;;;;;;3.17;1.33;;;;;;;;;;5038720;28;20065;-44
2023/03/15 09:35:49;;;;;;;4.20;1.02;;;;;;;;;;5035317;28;20032;-44
2023/03/15 09:38:22;;;;;;;1.52;1.10;;;;;;;;;;5030267;28;20041;-44
2023/03/15 09:40:48;;;;;;;8.90;1.58;;;;;;;;;;5035207;28;20035;-45
2023/03/15 09:43:16;;;;;;;10.07;1.10;;;;;;;;;;5035369;28;20443;-43
2023/03/15 09:46:03;;;;;;;4.43;1.25;;;;;;;;;;5035563;28;20037;-42
2023/03/15 09:48:57;;;;;;;4.40;2.15;;;;;;;;;;5036767;28;20056;-41
2023/03/15 09:51:50;;;;;;;4.90;0.90;;;;;;;;;;5035375;28;20451;-42
2023/03/15 09:54:22;;;;;;;4.07;1.10;;;;;;;;;;5035603;28;20028;-45
2023/03/15 09:56:56;;;;;;;6.50;1.83;;;;;;;;;;5035400;28;20037;-42
2023/03/15 09:59:28;;;;;;;3.58;1.17;;;;;;;;;;5036029;28;20025;-41
2023/03/15 10:01:55;;;;;;;3.08;1.08;;;;;;;;;;5031361;28;20124;-41
2023/03/15 10:04:39;;;;;;;2.10;0.80;;;;;;;;;;5033323;28;20082;-47
2023/03/15 10:07:10;;;;;;;2.53;1.02;;;;;;;;;;5028303;28;20082;-42
2023/03/15 10:09:36;;;;;;;4.00;1.10;;;;;;;;;;5038633;28;20481;-45
2023/03/15 10:12:22;;;;;;;4.13;1.20;;;;;;;;;;5035598;28;20072;-43
2023/03/15 10:15:23;;;;;;;4.68;1.27;;;;;;;;;;5036882;28;20063;-42
2023/03/15 10:17:58;;;;;;;3.83;1.05;;;;;;;;;;4992247;28;20467;-42
2023/03/15 10:20:38;;;;;;;2.08;1.00;;;;;;;;;;4990650;28;20542;-41
2023/03/15 10:23:14;;;;;;;2.60;0.98;;;;;;;;;;4997288;28;20394;-42
2023/03/15 10:25:49;;;;;;;3.03;0.98;;;;;;;;;;4993979;28;20541;-42
2023/03/15 10:28:30;;;;;;;3.00;1.17;;;;;;;;;;4994968;28;20038;-41
2023/03/15 10:30:59;;;;;;;2.17;0.98;;;;;;;;;;4990527;28;20076;-41
2023/03/15 10:33:34;;;;;;;2.90;1.60;;;;;;;;;;4989526;28;20875;-43
2023/03/15 10:36:19;;;;;;;6.05;1.20;;;;;;;;;;4991568;28;20446;-43
2023/03/15 10:38:45;;;;;;;4.32;0.60;;;;;;;;;;4990872;28;20043;-42
2023/03/15 10:41:27;;;;;;;2.53;1.10;;;;;;;;;;4994973;28;20108;-44
2023/03/15 10:44:02;;;;;;;6.55;1.17;;;;;;;;;;4993583;28;20021;-44
2023/03/15 10:46:31;;;;;;;4.20;0.80;;;;;;;;;;4992848;28;20052;-42
2023/03/15 10:49:20;;;;;;;2.65;1.42;;;;;;;;;;4995988;28;20037;-44
2023/03/15 10:51:47;;;;;;;4.07;1.05;;;;;;;;;;4984714;28;20050;-42
2023/03/15 10:54:15;;;;;;;1.67;0.77;;;;;;;;;;5008353;28;20041;-42
2023/03/15 10:56:58;;;;;;;1.55;0.90;;;;;;;;;;5032022;28;20048;-43
2023/03/15 10:59:25;;;;;;;3.80;1.40;;;;;;;;;;5033433;28;20026;-44
2023/03/15 11:01:53;;;;;;;3.22;1.35;;;;;;;;;;5036215;28;20045;-45
2023/03/15 11:04:20;;;;;;;4.40;0.90;;;;;;;;;;5036077;28;20061;-41
2023/03/15 11:07:01;;;;;;;1.25;0.90;;;;;;;;;;5028387;28;20042;-43
2023/03/15 11:09:37;;;;;;;1.80;0.80;;;;;;;;;;5030085;28;20029;-45
2023/03/15 11:12:05;;;;;;;2.30;1.20;;;;;;;;;;5031092;28;20258;-41
2023/03/15 11:14:32;;;;;;;2.55;0.88;;;;;;;;;;5034619;28;20028;-42
2023/03/15 11:17:06;;;;;;;4.72;1.52;;;;;;;;;;5038440;28;20128;-43
2023/03/15 11:19:37;;;;;;;3.17;0.82;;;;;;;;;;5034879;28;20028;-48
2023/03/15 11:22:10;;;;;;;3.30;0.90;;;;;;;;;;5034984;28;20037;-42
2023/03/15 11:24:36;;;;;;;2.05;1.00;;;;;;;;;;5038710;28;20036;-42
2023/03/15 11:27:16;;;;;;;11.88;1.10;;;;;;;;;;5037109;28;20049;-42
2023/03/15 11:29:57;;;;;;;4.22;1.00;;;;;;;;;;5038879;28;20478;-42
2023/03/15 11:32:29;;;;;;;2.55;0.55;;;;;;;;;;5030534;28;20046;-42
2023/03/15 11:35:01;;;;;;;2.55;1.15;;;;;;;;;;5035685;28;20030;-44
2023/03/15 11:37:37;;;;;;;5.57;0.77;;;;;;;;;;5034090;28;20069;-42
2023/03/15 11:40:14;;;;;;;1.55;0.70;;;;;;;;;;5039541;28;20029;-42
2023/03/15 11:43:04;;;;;;;1.13;0.98;;;;;;;;;;5039241;28;20045;-43
2023/03/15 11:45:41;;;;;;;1.25;0.95;;;;;;;;;;5033057;28;20116;-43
2023/03/15 11:48:31;;;;;;;0.85;0.65;;;;;;;;;;5035772;28;20127;-43
2023/03/15 11:50:58;;;;;;;2.72;0.88;;;;;;;;;;5032254;28;20103;-41
2023/03/15 11:53:33;;;;;;;4.45;1.10;;;;;;;;;;5035514;28;20025;-46
2023/03/15 11:56:43;;;;;;;2.10;0.88;;;;;;;;;;5033748;28;20498;-42
2023/03/15 11:59:15;;;;;;;2.55;0.75;;;;;;;;;;5033247;28;20577;-42
2023/03/15 12:02:27;;;;;;;3.35;0.70;;;;;;;;;;5040385;28;20499;-45
2023/03/15 12:04:54;;;;;;;2.83;0.90;;;;;;;;;;5036327;28;20095;-43
2023/03/15 12:07:22;;;;;;;1.50;0.63;;;;;;;;;;5034312;28;20120;-44
2023/03/15 12:10:14;;;;;;;1.77;0.80;;;;;;;;;;5039060;28;20037;-45
2023/03/15 12:12:57;;;;;;;3.30;0.95;;;;;;;;;;5034068;28;20044;-42
2023/03/15 12:15:26;;;;;;;2.63;0.90;;;;;;;;;;5031846;28;20037;-46
2023/03/15 12:17:59;;;;;;;5.93;1.00;;;;;;;;;;5038160;28;20698;-42
2023/03/15 12:20:41;;;;;;;2.28;0.70;;;;;;;;;;5033287;28;20037;-42
2023/03/15 12:23:15;;;;;;;;;;;;;;;;;;5033994;28;20405;-41
2023/03/15 12:25:52;;;;;;;3.10;0.90;;;;;;;;;;5035518;28;19924;-45
2023/03/15 12:28:34;;;;;;;2.42;0.88;;;;;;;;;;5032457;28;20137;-48
2023/03/15 12:31:01;;;;;;;2.60;0.67;;;;;;;;;;5035962;28;20037;-44
2023/03/15 12:33:31;;;;;;;2.55;0.60;;;;;;;;;;5033765;28;20435;-46
2023/03/15 12:36:13;;;;;;;1.13;0.63;;;;;;;;;;5037568;28;20728;-41
2023/03/15 12:38:57;;;;;;;1.02;0.63;;;;;;;;;;5036184;28;20032;-43
2023/03/15 12:41:48;;;;;;;1.40;0.77;;;;;;;;;;5036579;28;20510;-45
2023/03/15 12:44:17;;;;;;;1.70;0.63;;;;;;;;;;5034290;28;20091;-42
2023/03/15 12:46:52;;;;;;;6.43;1.00;;;;;;;;;;5041081;28;20045;-45
2023/03/15 12:49:23;;;;;;;1.05;0.40;;;;;;;;;;5037250;28;20040;-44
2023/03/15 12:52:03;;;;;;;3.80;0.80;;;;;;;;;;5027389;28;20044;-45
2023/03/15 12:55:13;;;;;;;1.42;0.40;;;;;;;;;;5035166;28;20753;-42
2023/03/15 12:57:46;;;;;;;0.98;0.60;;;;;;;;;;5034140;28;20045;-45
2023/03/15 13:00:22;;;;;;;1.65;0.40;;;;;;;;;;5027327;28;20111;-42
2023/03/15 13:03:02;;;;;;;0.68;0.50;;;;;;;;;;5035569;28;20037;-45
2023/03/15 13:06:16;;;;;;;4.28;0.60;;;;;;;;;;5030555;28;20482;-42
2023/03/15 13:08:50;;;;;;;0.60;0.60;;;;;;;;;;5035118;28;20761;-42
2023/03/15 13:11:54;;;;;;;4.22;0.50;;;;;;;;;;5032071;28;20037;-43
2023/03/15 13:14:52;;;;;;;0.68;0.30;;;;;;;;;;5035969;28;20533;-42
2023/03/15 13:17:38;;;;;;;0.95;0.47;;;;;;;;;;5034572;28;20054;-42
2023/03/15 13:20:30;;;;;;;1.75;0.30;;;;;;;;;;5032112;28;20552;-44
2023/03/15 13:23:29;;;;;;;0.20;0.20;;;;;;;;;;5031144;28;20740;-42
2023/03/15 13:26:19;;;;;;;0.40;0.30;;;;;;;;;;4992526;28;20040;-42
2023/03/15 13:29:07;;;;;;;6.32;0.50;;;;;;;;;;4991586;28;20046;-45
2023/03/15 13:31:33;;;;;;;0.60;0.30;;;;;;;;;;4997246;28;20410;-44
2023/03/15 13:34:27;;;;;;;2.92;0.20;;;;;;;;;;4993982;28;20069;-46
2023/03/15 13:36:56;;;;;;;0.43;0.40;;;;;;;;;;4990790;28;20034;-45
2023/03/15 13:39:32;;;;;;;0.30;0.30;;;;;;;;;;4996261;28;20063;-42
2023/03/15 13:41:59;;;;;;;0.40;0.40;;;;;;;;;;4995533;28;20045;-42
2023/03/15 13:44:26;;;;;;;0.40;0.30;;;;;;;;;;4994638;28;20053;-47
2023/03/15 13:46:55;;;;;;;2.88;0.40;;;;;;;;;;4992395;28;20042;-43
2023/03/15 13:49:21;;;;;;;1.63;0.68;;;;;;;;;;4996642;28;20033;-46
2023/03/15 13:51:52;;;;;;;2.15;0.65;;;;;;;;;;4994152;28;21703;-43
2023/03/15 13:54:27;;;;;;;3.15;0.65;;;;;;;;;;4990533;28;20141;-46
2023/03/15 13:57:10;;;;;;;1.23;0.60;;;;;;;;;;4992566;28;20128;-46
2023/03/15 14:00:09;;;;;;;5.07;0.68;;;;;;;;;;4988393;28;20034;-45
2023/03/15 14:03:13;;;;;;;2.17;0.80;;;;;;;;;;5031236;28;20051;-43
2023/03/15 14:05:45;;;;;;;0.52;0.40;;;;;;;;;;4975274;28;20037;-45
2023/03/15 14:08:28;;;;;;;2.88;0.70;;;;;;;;;;4971097;28;20043;-44
2023/03/15 14:10:58;;;;;;;5.43;0.50;;;;;;;;;;4976862;28;20038;-45
2023/03/15 14:13:33;;;;;;;3.30;0.63;;;;;;;;;;4974147;28;20064;-45
2023/03/15 14:16:05;;;;;;;1.75;0.60;;;;;;;;;;4971682;28;20031;-49
2023/03/15 14:18:41;;;;;;;1.58;1.05;;;;;;;;;;4978603;28;20537;-46
2023/03/15 14:21:13;;;;;;;0.75;0.75;;;;;;;;;;4974200;28;20038;-46
2023/03/15 14:23:50;;;;;;;;;;;;;;;;;;4974364;28;20030;-42
2023/03/15 14:26:21;;;;;;;1.58;0.77;;;;;;;;;;4975484;28;19926;-47
2023/03/15 14:28:58;;;;;;;0.65;0.60;;;;;;;;;;4976424;28;20108;-43
2023/03/15 14:31:26;;;;;;;0.60;0.60;;;;;;;;;;4974668;28;20046;-43
2023/03/15 14:34:16;;;;;;;1.13;0.57;;;;;;;;;;4971859;28;20058;-43
2023/03/15 14:36:44;;;;;;;3.50;1.00;;;;;;;;;;4977280;28;20512;-43
2023/03/15 14:39:35;;;;;;;3.08;0.47;;;;;;;;;;4995391;28;20076;-45
2023/03/15 14:42:01;;;;;;;3.90;0.80;;;;;;;;;;5037513;28;20136;-42
2023/03/15 14:44:26;;;;;;;1.70;0.70;;;;;;;;;;5033698;28;20104;-43
2023/03/15 14:46:52;;;;;;;6.25;1.98;;;;;;;;;;5037899;28;20045;-43
2023/03/15 14:49:33;;;;;;;3.90;0.68;;;;;;;;;;5032172;28;20033;-42
2023/03/15 14:52:01;;;;;;;1.20;0.60;;;;;;;;;;5022872;28;20053;-41
2023/03/15 14:54:28;;;;;;;1.63;0.60;;;;;;;;;;5026410;28;20061;-42
2023/03/15 14:56:54;;;;;;;6.05;0.90;;;;;;;;;;5032602;28;20140;-42
2023/03/15 14:59:20;;;;;;;1.63;0.65;;;;;;;;;;5031357;28;20449;-43
2023/03/15 15:01:52;;;;;;;3.03;0.63;;;;;;;;;;5033556;28;20049;-42
2023/03/15 15:04:18;;;;;;;1.88;0.82;;;;;;;;;;5025057;28;20029;-43
2023/03/15 15:06:49;;;;;;;6.53;0.80;;;;;;;;;;5035086;28;20046;-42
2023/03/15 15:09:21;;;;;;;2.22;0.77;;;;;;;;;;5033098;28;20044;-44